createdAt,value
2019-02-24T00:01:28.710Z,0.00
2019-02-24T00:03:54.861Z,-0.10
2019-02-24T00:06:21.013Z,-0.10
2019-02-24T00:08:47.179Z,-0.10
2019-02-24T00:11:13.317Z,0.00
2019-02-24T00:13:39.386Z,0.00
2019-02-24T00:16:05.512Z,0.00
2019-02-24T00:18:31.642Z,0.10
2019-02-24T00:20:57.734Z,0.00
2019-02-24T00:23:23.852Z,0.10
2019-02-24T00:25:49.994Z,0.10
2019-02-24T00:28:16.059Z,0.00
2019-02-24T00:30:42.199Z,0.10
2019-02-24T00:33:08.288Z,0.20
2019-02-24T00:35:34.467Z,0.20
2019-02-24T00:38:00.648Z,0.20
2019-02-24T00:40:26.736Z,0.20
2019-02-24T00:42:53.002Z,0.10
2019-02-24T00:45:19.074Z,0.10
2019-02-24T00:47:45.199Z,0.10
2019-02-24T00:50:11.397Z,0.20
2019-02-24T00:52:37.567Z,0.20
2019-02-24T00:55:05.624Z,0.10
2019-02-24T00:57:31.731Z,0.00
2019-02-24T01:00:00.252Z,0.10
2019-02-24T01:02:26.641Z,0.00
2019-02-24T01:04:52.755Z,-0.20
2019-02-24T01:07:18.839Z,-0.20
2019-02-24T01:09:44.988Z,-0.20
2019-02-24T01:12:11.198Z,-0.30
2019-02-24T01:14:37.296Z,-0.30
2019-02-24T01:17:03.534Z,-0.40
2019-02-24T01:19:29.653Z,-0.40
2019-02-24T01:21:55.772Z,-0.60
2019-02-24T01:24:21.920Z,-0.70
2019-02-24T01:26:48.087Z,-0.60
2019-02-24T01:29:14.243Z,-0.60
2019-02-24T01:31:40.459Z,-0.60
2019-02-24T01:34:06.657Z,-0.60
2019-02-24T01:36:32.768Z,-0.50
2019-02-24T01:38:58.855Z,-0.40
2019-02-24T01:41:24.985Z,-0.40
2019-02-24T01:43:51.069Z,-0.40
2019-02-24T01:46:17.217Z,-0.50
2019-02-24T01:48:43.441Z,-0.50
2019-02-24T01:51:09.680Z,-0.50
2019-02-24T01:53:35.861Z,-0.60
2019-02-24T01:56:01.995Z,-0.60
2019-02-24T01:58:34.936Z,-0.60
2019-02-24T02:00:56.073Z,-0.70
2019-02-24T02:03:22.223Z,-0.80
2019-02-24T02:05:48.442Z,-0.90
2019-02-24T02:08:14.545Z,-1.10
2019-02-24T02:10:40.679Z,-1.10
2019-02-24T02:13:06.864Z,-1.00
2019-02-24T02:15:32.975Z,-1.10
2019-02-24T02:17:59.117Z,-1.10
2019-02-24T02:20:25.295Z,-1.00
2019-02-24T02:22:51.437Z,-1.20
2019-02-24T02:25:17.591Z,-1.20
2019-02-24T02:27:43.742Z,-1.10
2019-02-24T02:30:10.040Z,-1.20
2019-02-24T02:32:36.380Z,-1.20
2019-02-24T02:35:04.606Z,-1.20
2019-02-24T02:37:30.846Z,-1.30
2019-02-24T02:39:56.917Z,-1.40
2019-02-24T02:42:23.031Z,-1.40
2019-02-24T02:44:49.153Z,-1.60
2019-02-24T02:47:15.252Z,-1.50
2019-02-24T02:49:41.394Z,-1.40
2019-02-24T02:52:07.523Z,-1.40
2019-02-24T02:54:33.722Z,-1.40
2019-02-24T02:56:59.831Z,-1.30
2019-02-24T02:59:26.023Z,-1.40
2019-02-24T03:01:52.228Z,-1.40
2019-02-24T03:04:18.365Z,-1.50
2019-02-24T03:06:46.438Z,-1.40
2019-02-24T03:09:12.655Z,-1.40
2019-02-24T03:11:38.884Z,-1.50
2019-02-24T03:14:05.176Z,-1.50
2019-02-24T03:16:31.254Z,-1.40
2019-02-24T03:18:57.425Z,-1.50
2019-02-24T03:21:23.999Z,-1.30
2019-02-24T03:23:50.227Z,-1.20
2019-02-24T03:26:16.349Z,-1.10
2019-02-24T03:28:42.570Z,-1.10
2019-02-24T03:31:08.718Z,-1.20
2019-02-24T03:33:35.107Z,-1.40
2019-02-24T03:36:01.208Z,-1.30
2019-02-24T03:38:27.353Z,-1.40
2019-02-24T03:40:53.561Z,-1.30
2019-02-24T03:43:19.687Z,-1.10
2019-02-24T03:45:45.851Z,-1.10
2019-02-24T03:48:12.024Z,-1.10
2019-02-24T03:50:38.163Z,-1.10
2019-02-24T03:53:04.499Z,-1.10
2019-02-24T03:55:30.770Z,-1.20
2019-02-24T03:57:56.976Z,-1.10
2019-02-24T04:00:23.203Z,-1.20
2019-02-24T04:02:49.623Z,-1.30
2019-02-24T04:05:16.306Z,-1.20
2019-02-24T04:07:42.437Z,-1.30
2019-02-24T04:10:08.557Z,-1.30
2019-02-24T04:12:35.058Z,-1.30
2019-02-24T04:15:01.342Z,-1.30
2019-02-24T04:17:27.430Z,-1.30
2019-02-24T04:19:53.574Z,-1.30
2019-02-24T04:22:19.770Z,-1.40
2019-02-24T04:24:45.855Z,-1.30
2019-02-24T04:27:11.981Z,-1.30
2019-02-24T04:29:38.212Z,-1.20
2019-02-24T04:32:05.898Z,-1.10
2019-02-24T04:34:31.992Z,-1.10
2019-02-24T04:36:58.166Z,-1.20
2019-02-24T04:39:24.513Z,-1.20
2019-02-24T04:41:50.651Z,-1.20
2019-02-24T04:44:16.852Z,-1.30
2019-02-24T04:46:42.971Z,-1.30
2019-02-24T04:49:09.169Z,-1.40
2019-02-24T04:51:35.295Z,-1.40
2019-02-24T04:54:01.464Z,-1.40
2019-02-24T04:56:27.572Z,-1.50
2019-02-24T04:58:53.705Z,-1.60
2019-02-24T05:01:19.804Z,-1.70
2019-02-24T05:03:45.926Z,-1.70
2019-02-24T05:06:12.038Z,-1.50
2019-02-24T05:08:38.117Z,-1.50
2019-02-24T05:11:04.259Z,-1.50
2019-02-24T05:13:30.535Z,-1.50
2019-02-24T05:15:56.688Z,-1.40
2019-02-24T05:18:22.805Z,-1.50
2019-02-24T05:20:49.006Z,-1.60
2019-02-24T05:23:15.119Z,-1.50
2019-02-24T05:25:41.192Z,-1.30
2019-02-24T05:28:07.291Z,-1.40
2019-02-24T05:30:33.417Z,-1.40
2019-02-24T05:32:59.494Z,-1.60
2019-02-24T05:35:25.622Z,-1.60
2019-02-24T05:37:51.862Z,-1.60
2019-02-24T05:40:18.043Z,-1.80
2019-02-24T05:42:44.192Z,-1.90
2019-02-24T05:45:10.355Z,-1.90
2019-02-24T05:47:36.466Z,-1.90
2019-02-24T05:50:03.795Z,-1.90
2019-02-24T05:52:29.977Z,-1.90
2019-02-24T05:54:56.090Z,-1.90
2019-02-24T05:57:22.249Z,-1.90
2019-02-24T05:59:55.039Z,-2.00
2019-02-24T06:02:16.413Z,-1.90
2019-02-24T06:04:42.519Z,-1.90
2019-02-24T06:07:08.599Z,-2.00
2019-02-24T06:09:34.702Z,-2.00
2019-02-24T06:12:00.831Z,-2.00
2019-02-24T06:14:27.056Z,-2.00
2019-02-24T06:16:53.139Z,-2.00
2019-02-24T06:19:19.261Z,-2.00
2019-02-24T06:21:45.346Z,-1.90
2019-02-24T06:24:11.451Z,-1.90
2019-02-24T06:26:37.581Z,-1.80
2019-02-24T06:29:03.784Z,-1.80
2019-02-24T06:31:29.917Z,-1.80
2019-02-24T06:33:56.003Z,-1.70
2019-02-24T06:36:22.108Z,-1.70
2019-02-24T06:38:48.265Z,-1.50
2019-02-24T06:41:14.468Z,-1.50
2019-02-24T06:43:40.533Z,-1.50
2019-02-24T06:46:06.677Z,-1.40
2019-02-24T06:48:32.751Z,-1.30
2019-02-24T06:51:00.775Z,-1.20
2019-02-24T06:53:26.886Z,-1.10
2019-02-24T06:55:53.005Z,-1.00
2019-02-24T06:58:19.083Z,-0.90
2019-02-24T07:00:45.175Z,-0.80
2019-02-24T07:03:11.313Z,-0.70
2019-02-24T07:05:37.418Z,-0.70
2019-02-24T07:08:03.520Z,-0.60
2019-02-24T07:10:29.649Z,-0.60
2019-02-24T07:12:55.766Z,-0.50
2019-02-24T07:15:21.858Z,-0.60
2019-02-24T07:17:47.978Z,-0.50
2019-02-24T07:20:14.120Z,-0.40
2019-02-24T07:22:40.372Z,-0.20
2019-02-24T07:25:06.692Z,0.10
2019-02-24T07:27:32.828Z,0.20
2019-02-24T07:29:58.951Z,0.80
2019-02-24T07:32:25.080Z,1.20
2019-02-24T07:34:51.204Z,1.40
2019-02-24T07:37:17.400Z,1.30
2019-02-24T07:39:43.519Z,1.20
2019-02-24T07:42:09.608Z,1.20
2019-02-24T07:44:35.712Z,1.30
2019-02-24T07:47:01.800Z,1.30
2019-02-24T07:49:27.938Z,1.40
2019-02-24T07:51:54.090Z,1.50
2019-02-24T07:54:20.188Z,1.50
2019-02-24T07:56:46.309Z,1.60
2019-02-24T07:59:12.400Z,1.70
2019-02-24T08:01:38.515Z,1.80
2019-02-24T08:04:04.647Z,2.00
2019-02-24T08:06:30.736Z,2.10
2019-02-24T08:08:56.876Z,2.20
2019-02-24T08:11:23.058Z,2.10
2019-02-24T08:13:49.185Z,2.40
2019-02-24T08:16:15.343Z,2.60
2019-02-24T08:18:49.251Z,3.30
2019-02-24T08:21:09.542Z,4.90
2019-02-24T08:23:35.763Z,5.80
2019-02-24T08:26:01.961Z,5.80
2019-02-24T08:28:28.050Z,5.00
2019-02-24T08:30:54.221Z,4.40
2019-02-24T08:33:20.391Z,4.10
2019-02-24T08:35:46.546Z,3.80
2019-02-24T08:38:12.648Z,3.50
2019-02-24T08:40:38.797Z,3.50
2019-02-24T08:43:05.023Z,3.60
2019-02-24T08:45:31.108Z,3.80
2019-02-24T08:47:57.191Z,3.70
2019-02-24T08:50:23.334Z,3.70
2019-02-24T08:52:49.494Z,3.80
2019-02-24T08:55:15.640Z,3.80
2019-02-24T08:57:41.880Z,4.00
2019-02-24T09:00:13.298Z,4.00
2019-02-24T09:02:39.408Z,4.30
2019-02-24T09:05:05.620Z,4.30
2019-02-24T09:07:31.843Z,4.40
2019-02-24T09:09:58.014Z,4.60
2019-02-24T09:12:24.145Z,4.80
2019-02-24T09:14:50.352Z,4.80
2019-02-24T09:17:16.451Z,5.30
2019-02-24T09:19:42.707Z,5.50
2019-02-24T09:22:09.006Z,5.60
2019-02-24T09:24:35.423Z,5.40
2019-02-24T09:27:01.823Z,5.50
2019-02-24T09:29:27.906Z,5.40
2019-02-24T09:31:54.051Z,5.40
2019-02-24T09:34:20.173Z,5.50
2019-02-24T09:36:46.387Z,5.40
2019-02-24T09:39:12.607Z,5.40
2019-02-24T09:41:38.717Z,5.40
2019-02-24T09:44:04.916Z,5.40
2019-02-24T09:46:31.044Z,5.40
2019-02-24T09:48:57.246Z,5.40
2019-02-24T09:51:23.344Z,5.20
2019-02-24T09:53:49.490Z,5.20
2019-02-24T09:56:15.655Z,5.20
2019-02-24T09:58:41.808Z,5.30
2019-02-24T10:01:10.787Z,5.10
2019-02-24T10:03:35.920Z,5.20
2019-02-24T10:06:02.091Z,5.40
2019-02-24T10:08:28.285Z,5.50
2019-02-24T10:10:54.377Z,5.40
2019-02-24T10:13:20.507Z,5.40
2019-02-24T10:15:46.594Z,5.40
2019-02-24T10:18:12.723Z,5.50
2019-02-24T10:20:39.058Z,5.70
2019-02-24T10:23:05.240Z,5.80
2019-02-24T10:25:31.331Z,5.70
2019-02-24T10:27:57.468Z,5.90
2019-02-24T10:30:23.676Z,6.30
2019-02-24T10:32:49.847Z,7.00
2019-02-24T10:35:16.083Z,7.20
2019-02-24T10:37:42.216Z,7.50
2019-02-24T10:40:13.701Z,7.90
2019-02-24T10:42:39.981Z,8.00
2019-02-24T10:45:09.261Z,8.10
2019-02-24T10:47:55.275Z,8.20
2019-02-24T10:50:21.502Z,8.40
2019-02-24T10:52:47.634Z,8.30
2019-02-24T10:55:13.963Z,8.00
2019-02-24T10:57:40.465Z,8.30
2019-02-24T11:00:20.549Z,8.30
2019-02-24T11:02:46.738Z,8.50
2019-02-24T11:05:14.267Z,8.10
2019-02-24T11:07:40.459Z,8.30
2019-02-24T11:10:07.879Z,8.30
2019-02-24T11:12:34.102Z,8.50
2019-02-24T11:15:00.594Z,8.60
2019-02-24T11:17:26.661Z,8.60
2019-02-24T11:19:52.772Z,9.30
2019-02-24T11:22:18.854Z,10.00
2019-02-24T11:24:44.943Z,10.50
2019-02-24T11:27:11.069Z,10.70
2019-02-24T11:29:37.304Z,11.10
2019-02-24T11:32:03.431Z,11.50
2019-02-24T11:34:29.670Z,11.60
2019-02-24T11:36:55.756Z,11.80
2019-02-24T11:39:22.004Z,12.00
2019-02-24T11:41:48.347Z,12.20
2019-02-24T11:44:14.544Z,12.30
2019-02-24T11:46:40.703Z,11.10
2019-02-24T11:49:06.954Z,10.80
2019-02-24T11:51:33.190Z,10.80
2019-02-24T11:53:59.409Z,11.00
2019-02-24T11:56:25.686Z,11.00
2019-02-24T11:58:51.767Z,10.60
2019-02-24T12:01:17.912Z,10.50
2019-02-24T12:03:44.034Z,10.80
2019-02-24T12:06:10.142Z,11.30
2019-02-24T12:08:36.401Z,11.70
2019-02-24T12:11:02.784Z,11.90
2019-02-24T12:13:28.869Z,12.30
2019-02-24T12:15:54.995Z,12.60
2019-02-24T12:18:21.195Z,12.60
2019-02-24T12:20:47.392Z,12.40
2019-02-24T12:23:13.521Z,12.10
2019-02-24T12:25:39.657Z,12.20
2019-02-24T12:28:05.783Z,12.20
2019-02-24T12:30:31.969Z,12.40
2019-02-24T12:32:58.152Z,12.70
2019-02-24T12:35:24.328Z,12.80
2019-02-24T12:37:50.446Z,12.90
2019-02-24T12:40:16.696Z,12.70
2019-02-24T12:42:42.879Z,13.10
2019-02-24T12:45:10.216Z,13.30
2019-02-24T12:47:36.456Z,13.20
2019-02-24T12:50:06.004Z,13.20
2019-02-24T12:52:32.134Z,13.50
2019-02-24T12:54:58.226Z,13.60
2019-02-24T12:57:24.312Z,13.50
2019-02-24T12:59:50.465Z,13.40
2019-02-24T13:02:16.789Z,13.30
2019-02-24T13:04:42.976Z,13.50
2019-02-24T13:07:09.087Z,13.60
2019-02-24T13:09:35.182Z,13.60
2019-02-24T13:12:01.380Z,13.50
2019-02-24T13:14:27.599Z,13.60
2019-02-24T13:16:53.683Z,13.40
2019-02-24T13:19:19.799Z,13.10
2019-02-24T13:21:46.467Z,13.50
2019-02-24T13:24:12.686Z,13.50
2019-02-24T13:26:38.941Z,13.70
2019-02-24T13:29:05.357Z,14.00
2019-02-24T13:31:31.704Z,14.20
2019-02-24T13:33:57.906Z,13.80
2019-02-24T13:36:24.033Z,13.80
2019-02-24T13:38:50.170Z,14.10
2019-02-24T13:41:16.454Z,14.30
2019-02-24T13:43:42.607Z,14.40
2019-02-24T13:46:08.754Z,14.30
2019-02-24T13:48:35.164Z,14.50
2019-02-24T13:51:01.332Z,14.10
2019-02-24T13:53:27.797Z,14.00
2019-02-24T13:55:54.030Z,13.90
2019-02-24T13:58:20.189Z,14.30
2019-02-24T14:00:46.444Z,14.00
2019-02-24T14:03:12.608Z,14.30
2019-02-24T14:05:38.725Z,14.40
2019-02-24T14:08:04.878Z,14.50
2019-02-24T14:10:31.110Z,14.70
2019-02-24T14:12:58.935Z,14.30
2019-02-24T14:15:25.270Z,14.30
2019-02-24T14:17:51.500Z,14.20
2019-02-24T14:20:18.231Z,14.90
2019-02-24T14:22:44.357Z,15.70
2019-02-24T14:25:11.809Z,16.60
2019-02-24T14:27:37.951Z,17.90
2019-02-24T14:30:10.715Z,19.30
2019-02-24T14:32:36.827Z,19.90
2019-02-24T14:35:06.235Z,20.30
2019-02-24T14:37:32.325Z,21.10
2019-02-24T14:39:58.443Z,21.80
2019-02-24T14:42:24.514Z,22.30
2019-02-24T14:44:50.629Z,22.90
2019-02-24T14:47:16.781Z,21.90
2019-02-24T14:49:42.887Z,21.90
2019-02-24T14:52:08.981Z,22.20
2019-02-24T14:54:35.119Z,22.60
2019-02-24T14:57:01.341Z,22.70
2019-02-24T14:59:27.461Z,22.90
2019-02-24T15:01:53.557Z,22.30
2019-02-24T15:04:19.641Z,21.90
2019-02-24T15:06:45.874Z,22.30
2019-02-24T15:09:11.972Z,22.30
2019-02-24T15:11:38.125Z,22.50
2019-02-24T15:14:04.359Z,22.80
2019-02-24T15:16:30.536Z,22.50
2019-02-24T15:18:56.685Z,22.30
2019-02-24T15:21:22.877Z,21.70
2019-02-24T15:23:48.959Z,21.10
2019-02-24T15:26:15.121Z,21.00
2019-02-24T15:28:41.595Z,21.10
2019-02-24T15:31:07.749Z,21.30
2019-02-24T15:33:33.861Z,21.20
2019-02-24T15:36:00.038Z,20.90
2019-02-24T15:38:26.147Z,20.60
2019-02-24T15:40:52.289Z,20.50
2019-02-24T15:43:18.478Z,20.40
2019-02-24T15:45:44.700Z,20.30
2019-02-24T15:48:10.910Z,20.20
2019-02-24T15:50:37.121Z,20.10
2019-02-24T15:53:03.324Z,19.80
2019-02-24T15:55:29.441Z,18.60
2019-02-24T15:57:55.538Z,16.90
2019-02-24T16:00:23.162Z,15.40
2019-02-24T16:02:49.364Z,14.20
2019-02-24T16:05:15.672Z,13.40
2019-02-24T16:07:41.911Z,12.80
2019-02-24T16:10:13.474Z,12.20
2019-02-24T16:12:59.570Z,11.80
2019-02-24T16:15:27.261Z,11.50
2019-02-24T16:17:53.438Z,11.20
2019-02-24T16:20:27.863Z,11.00
2019-02-24T16:22:54.140Z,10.90
2019-02-24T16:25:20.251Z,10.80
2019-02-24T16:27:46.415Z,10.50
2019-02-24T16:30:14.185Z,10.30
2019-02-24T16:32:40.280Z,10.30
2019-02-24T16:35:09.611Z,10.40
2019-02-24T16:37:35.818Z,10.30
2019-02-24T16:40:02.473Z,10.20
2019-02-24T16:42:28.967Z,10.10
2019-02-24T16:44:55.112Z,9.90
2019-02-24T16:47:21.284Z,9.70
2019-02-24T16:49:47.422Z,9.60
2019-02-24T16:52:33.383Z,9.20
2019-02-24T16:54:59.538Z,9.10
2019-02-24T16:57:25.734Z,9.00
2019-02-24T16:59:51.960Z,8.90
2019-02-24T17:02:22.959Z,8.80
2019-02-24T17:04:46.181Z,8.70
2019-02-24T17:07:12.460Z,8.30
2019-02-24T17:09:38.801Z,8.10
2019-02-24T17:12:05.039Z,8.00
2019-02-24T17:14:31.269Z,7.90
2019-02-24T17:17:01.622Z,7.80
2019-02-24T17:19:25.648Z,7.70
2019-02-24T17:21:51.847Z,7.70
2019-02-24T17:24:17.962Z,7.60
2019-02-24T17:26:44.159Z,7.60
2019-02-24T17:29:10.462Z,7.40
2019-02-24T17:31:36.594Z,7.30
2019-02-24T17:34:02.740Z,7.20
2019-02-24T17:36:28.903Z,7.20
2019-02-24T17:38:55.073Z,7.00
2019-02-24T17:41:21.284Z,6.80
2019-02-24T17:43:47.392Z,6.50
2019-02-24T17:46:13.542Z,6.20
2019-02-24T17:48:39.839Z,6.20
2019-02-24T17:51:05.932Z,6.30
2019-02-24T17:53:32.071Z,6.30
2019-02-24T17:55:58.272Z,6.20
2019-02-24T17:58:24.438Z,6.10
2019-02-24T18:00:52.549Z,6.20
2019-02-24T18:03:18.661Z,6.20
2019-02-24T18:05:44.895Z,6.00
2019-02-24T18:08:11.007Z,5.70
2019-02-24T18:10:37.100Z,5.60
2019-02-24T18:13:03.243Z,5.60
2019-02-24T18:15:29.406Z,5.60
2019-02-24T18:17:55.559Z,5.50
2019-02-24T18:20:21.764Z,5.40
2019-02-24T18:22:47.872Z,5.40
2019-02-24T18:25:13.947Z,5.20
2019-02-24T18:27:41.118Z,5.10
2019-02-24T18:30:10.734Z,4.90
2019-02-24T18:32:36.858Z,4.80
2019-02-24T18:35:03.773Z,4.70
2019-02-24T18:37:29.851Z,4.70
2019-02-24T18:39:55.984Z,4.50
2019-02-24T18:42:22.194Z,4.40
2019-02-24T18:44:48.731Z,4.50
2019-02-24T18:47:14.978Z,4.50
2019-02-24T18:49:41.149Z,4.30
2019-02-24T18:52:07.292Z,4.40
2019-02-24T18:54:34.936Z,4.50
2019-02-24T18:57:01.387Z,4.40
2019-02-24T18:59:27.511Z,4.20
2019-02-24T19:01:53.744Z,4.30
2019-02-24T19:04:19.955Z,4.20
2019-02-24T19:06:46.167Z,4.20
2019-02-24T19:09:12.268Z,4.20
2019-02-24T19:11:38.374Z,4.10
2019-02-24T19:14:04.711Z,4.00
2019-02-24T19:16:30.823Z,3.90
2019-02-24T19:18:56.977Z,3.80
2019-02-24T19:21:23.101Z,3.70
2019-02-24T19:23:49.179Z,3.70
2019-02-24T19:26:15.410Z,3.70
2019-02-24T19:28:41.495Z,3.70
2019-02-24T19:31:07.687Z,3.60
2019-02-24T19:33:33.783Z,3.60
2019-02-24T19:36:07.957Z,3.60
2019-02-24T19:38:34.109Z,3.60
2019-02-24T19:41:00.279Z,3.60
2019-02-24T19:43:26.379Z,3.60
2019-02-24T19:45:52.463Z,3.50
2019-02-24T19:48:18.567Z,3.30
2019-02-24T19:50:44.677Z,3.10
2019-02-24T19:53:10.749Z,3.10
2019-02-24T19:55:36.875Z,3.10
2019-02-24T19:58:03.335Z,3.40
2019-02-24T20:00:29.471Z,3.40
2019-02-24T20:02:55.688Z,3.30
2019-02-24T20:05:21.935Z,3.20
2019-02-24T20:07:48.192Z,3.20
2019-02-24T20:10:19.381Z,3.00
2019-02-24T20:12:45.695Z,3.20
2019-02-24T20:15:13.686Z,3.30
2019-02-24T20:17:39.809Z,3.20
2019-02-24T20:20:09.241Z,3.00
2019-02-24T20:22:35.319Z,3.00
2019-02-24T20:25:01.657Z,2.90
2019-02-24T20:27:27.845Z,2.80
2019-02-24T20:29:53.947Z,2.70
2019-02-24T20:32:20.085Z,2.60
2019-02-24T20:34:46.193Z,2.40
2019-02-24T20:37:12.330Z,2.40
2019-02-24T20:39:38.491Z,2.40
2019-02-24T20:42:04.622Z,2.20
2019-02-24T20:44:30.794Z,2.00
2019-02-24T20:46:56.881Z,2.10
2019-02-24T20:49:22.995Z,2.20
2019-02-24T20:51:49.332Z,2.10
2019-02-24T20:54:15.454Z,2.00
2019-02-24T20:56:41.698Z,1.90
2019-02-24T20:59:07.841Z,1.90
2019-02-24T21:01:34.079Z,2.00
2019-02-24T21:04:00.156Z,1.90
2019-02-24T21:06:26.311Z,1.90
2019-02-24T21:08:52.430Z,2.00
2019-02-24T21:11:18.525Z,2.10
2019-02-24T21:13:44.676Z,2.00
2019-02-24T21:16:10.929Z,1.90
2019-02-24T21:18:37.258Z,2.00
2019-02-24T21:21:03.474Z,2.10
2019-02-24T21:23:29.636Z,2.40
2019-02-24T21:25:55.806Z,2.20
2019-02-24T21:28:21.952Z,2.10
2019-02-24T21:30:48.082Z,2.00
2019-02-24T21:33:14.239Z,2.00
2019-02-24T21:35:40.320Z,1.80
2019-02-24T21:38:06.450Z,1.70
2019-02-24T21:40:32.522Z,1.70
2019-02-24T21:42:58.618Z,1.60
2019-02-24T21:45:25.939Z,1.50
2019-02-24T21:47:52.122Z,1.60
2019-02-24T21:50:18.290Z,1.60
2019-02-24T21:52:44.516Z,1.60
2019-02-24T21:55:11.327Z,1.60
2019-02-24T21:57:37.452Z,1.50
2019-02-24T22:00:12.358Z,1.50
2019-02-24T22:02:38.439Z,1.60
2019-02-24T22:05:07.783Z,1.60
2019-02-24T22:07:33.977Z,1.60
2019-02-24T22:10:00.281Z,1.50
2019-02-24T22:12:26.543Z,1.30
2019-02-24T22:14:52.658Z,1.30
2019-02-24T22:17:18.898Z,1.40
2019-02-24T22:19:45.085Z,1.30
2019-02-24T22:22:11.175Z,1.20
2019-02-24T22:24:37.283Z,1.20
2019-02-24T22:27:03.563Z,1.10
2019-02-24T22:29:29.787Z,0.90
2019-02-24T22:31:56.009Z,0.80
2019-02-24T22:34:22.147Z,0.70
2019-02-24T22:36:48.371Z,0.70
2019-02-24T22:39:14.570Z,0.70
2019-02-24T22:41:40.735Z,0.80
2019-02-24T22:44:06.891Z,0.90
2019-02-24T22:46:33.089Z,1.00
2019-02-24T22:48:59.232Z,0.90
2019-02-24T22:51:25.493Z,0.90
2019-02-24T22:53:53.056Z,0.90
2019-02-24T22:56:19.354Z,1.10
2019-02-24T22:58:45.480Z,1.10
2019-02-24T23:01:13.821Z,1.10
2019-02-24T23:03:40.030Z,0.90
2019-02-24T23:06:06.466Z,0.80
2019-02-24T23:08:32.653Z,0.70
2019-02-24T23:10:58.731Z,0.50
2019-02-24T23:13:24.823Z,0.60
2019-02-24T23:15:51.149Z,0.60
2019-02-24T23:18:17.285Z,0.60
2019-02-24T23:20:43.342Z,0.60
2019-02-24T23:23:09.802Z,0.60
2019-02-24T23:25:35.971Z,0.70
2019-02-24T23:28:02.274Z,0.60
2019-02-24T23:30:28.347Z,0.40
2019-02-24T23:32:54.640Z,0.40
2019-02-24T23:35:22.667Z,0.40
2019-02-24T23:37:48.759Z,0.40
2019-02-24T23:40:14.830Z,0.50
2019-02-24T23:42:40.979Z,0.50
2019-02-24T23:45:10.481Z,0.40
2019-02-24T23:47:37.097Z,0.50
2019-02-24T23:50:05.719Z,0.50
2019-02-24T23:52:31.939Z,0.60
2019-02-24T23:54:58.034Z,0.60
2019-02-24T23:57:24.122Z,0.50
2019-02-24T23:59:50.374Z,0.30
